Time;durP1;ratioP1;P1;durP2;ratioP2;P2;SDS_P1;SDS_P2;PMS_P1;PMS_P2;Temp;Humidity;BMP_temperature;BMP_pressure;BME280_temperature;BME280_humidity;BME280_pressure;Samples;Min_cycle;Max_cycle;Signal;HPM_P1;HPM_P2
2022/07/01 00:01:19;;;;;;;;;1.75;1.25;;;;;;;;5132888;27;45463;-64
2022/07/01 00:03:49;;;;;;;;;2.00;1.00;;;;;;;;5133121;27;45521;-65
2022/07/01 00:06:14;;;;;;;;;1.75;1.75;;;;;;;;5131946;27;45377;-64
2022/07/01 00:08:39;;;;;;;;;3.25;1.75;;;;;;;;5130783;27;45569;-64
2022/07/01 00:11:04;;;;;;;;;1.00;1.00;;;;;;;;5114304;27;45524;-64
2022/07/01 00:13:29;;;;;;;;;2.25;1.25;;;;;;;;5133812;27;45797;-64
2022/07/01 00:15:55;;;;;;;;;4.00;2.00;;;;;;;;5133730;27;45992;-63
2022/07/01 00:18:21;;;;;;;;;2.25;2.00;;;;;;;;5113390;27;48381;-64
2022/07/01 00:20:46;;;;;;;;;2.00;2.00;;;;;;;;5113777;27;46623;-64
2022/07/01 00:23:13;;;;;;;;;3.50;3.25;;;;;;;;5132659;27;45544;-65
2022/07/01 00:25:38;;;;;;;;;1.00;1.00;;;;;;;;5133625;27;45593;-65
2022/07/01 00:28:03;;;;;;;;;3.25;2.00;;;;;;;;5133388;27;46108;-64
2022/07/01 00:30:29;;;;;;;;;3.00;1.50;;;;;;;;5114580;27;45479;-64
2022/07/01 00:32:55;;;;;;;;;1.50;1.50;;;;;;;;5135884;27;45501;-64
2022/07/01 00:35:20;;;;;;;;;2.25;2.25;;;;;;;;5113009;27;46024;-65
2022/07/01 00:37:45;;;;;;;;;2.75;2.75;;;;;;;;5134479;27;45634;-64
2022/07/01 00:40:11;;;;;;;;;2.75;2.75;;;;;;;;5134376;27;45877;-64
2022/07/01 00:42:40;;;;;;;;;2.25;1.75;;;;;;;;5132011;27;45465;-64
2022/07/01 00:45:07;;;;;;;;;2.25;2.00;;;;;;;;5131167;27;45492;-64
2022/07/01 00:47:32;;;;;;;;;1.25;1.00;;;;;;;;5132982;27;46268;-64
2022/07/01 00:49:57;;;;;;;;;2.75;2.75;;;;;;;;5113856;27;45490;-64
2022/07/01 00:52:22;;;;;;;;;2.00;2.00;;;;;;;;5112644;27;45496;-64
2022/07/01 00:54:47;;;;;;;;;3.00;3.00;;;;;;;;5113074;27;45468;-66
2022/07/01 00:57:13;;;;;;;;;2.00;2.00;;;;;;;;5131804;27;46635;-65
2022/07/01 00:59:38;;;;;;;;;2.25;2.00;;;;;;;;5112500;27;45612;-66
2022/07/01 01:02:04;;;;;;;;;3.00;2.00;;;;;;;;5131608;27;45514;-64
2022/07/01 01:04:30;;;;;;;;;2.00;2.00;;;;;;;;5130146;27;45629;-64
2022/07/01 01:06:55;;;;;;;;;2.00;2.00;;;;;;;;5131231;27;46490;-64
2022/07/01 01:09:21;;;;;;;;;2.00;2.00;;;;;;;;5104179;27;45588;-64
2022/07/01 01:11:46;;;;;;;;;2.00;2.00;;;;;;;;5131799;27;45459;-67
2022/07/01 01:14:12;;;;;;;;;2.50;2.50;;;;;;;;5124799;27;45515;-65
2022/07/01 01:16:38;;;;;;;;;3.75;2.75;;;;;;;;5112658;27;47720;-65
2022/07/01 01:19:06;;;;;;;;;3.00;3.00;;;;;;;;5132768;27;45526;-65
2022/07/01 01:21:33;;;;;;;;;2.50;2.50;;;;;;;;5122400;27;45955;-65
2022/07/01 01:23:58;;;;;;;;;2.75;2.75;;;;;;;;5131869;27;45377;-65
2022/07/01 01:26:25;;;;;;;;;3.00;3.00;;;;;;;;5122197;27;46508;-65
2022/07/01 01:28:50;;;;;;;;;2.25;2.25;;;;;;;;5113754;27;45679;-65
2022/07/01 01:31:16;;;;;;;;;3.50;3.50;;;;;;;;5132055;27;45463;-66
2022/07/01 01:33:41;;;;;;;;;2.00;2.00;;;;;;;;5122657;27;45461;-65
2022/07/01 01:36:06;;;;;;;;;4.00;4.00;;;;;;;;5133041;27;46026;-65
2022/07/01 01:38:36;;;;;;;;;2.00;2.00;;;;;;;;5122117;27;45767;-65
2022/07/01 01:41:02;;;;;;;;;3.25;2.25;;;;;;;;5132970;27;45425;-65
2022/07/01 01:43:27;;;;;;;;;2.75;2.75;;;;;;;;5130360;27;45525;-64
2022/07/01 01:45:53;;;;;;;;;1.50;1.50;;;;;;;;5123775;27;47391;-64
2022/07/01 01:48:18;;;;;;;;;2.50;2.00;;;;;;;;5131078;27;45596;-63
2022/07/01 01:50:43;;;;;;;;;3.00;3.00;;;;;;;;5122767;27;45485;-65
2022/07/01 01:53:08;;;;;;;;;3.50;3.50;;;;;;;;5132275;27;45934;-64
2022/07/01 01:55:34;;;;;;;;;3.25;3.25;;;;;;;;5128692;27;45727;-64
2022/07/01 01:57:59;;;;;;;;;2.00;2.00;;;;;;;;5124918;27;45608;-64
2022/07/01 02:00:24;;;;;;;;;3.00;3.00;;;;;;;;5132365;27;45870;-64
2022/07/01 02:02:49;;;;;;;;;3.00;3.00;;;;;;;;5122757;27;45385;-65
2022/07/01 02:05:14;;;;;;;;;2.25;2.25;;;;;;;;5132263;27;47295;-64
2022/07/01 02:07:40;;;;;;;;;4.00;4.00;;;;;;;;5128465;27;45495;-65
2022/07/01 02:10:05;;;;;;;;;4.25;3.00;;;;;;;;5125422;27;45703;-64
2022/07/01 02:12:31;;;;;;;;;3.00;3.00;;;;;;;;5131017;27;47235;-64
2022/07/01 02:14:57;;;;;;;;;5.25;4.25;;;;;;;;5102462;27;46453;-64
2022/07/01 02:17:22;;;;;;;;;3.75;3.75;;;;;;;;5129948;27;45971;-64
2022/07/01 02:19:47;;;;;;;;;4.00;4.00;;;;;;;;5106486;27;45980;-64
2022/07/01 02:22:13;;;;;;;;;4.25;4.25;;;;;;;;5105478;27;45557;-64
2022/07/01 02:24:38;;;;;;;;;4.00;4.00;;;;;;;;5131332;27;46405;-64
2022/07/01 02:27:03;;;;;;;;;3.00;3.00;;;;;;;;5121294;27;45653;-64
2022/07/01 02:29:28;;;;;;;;;4.50;4.50;;;;;;;;5131547;27;45624;-64
2022/07/01 02:31:54;;;;;;;;;6.00;5.00;;;;;;;;5125844;27;45413;-64
2022/07/01 02:34:19;;;;;;;;;5.00;4.00;;;;;;;;5108834;27;46400;-64
2022/07/01 02:36:44;;;;;;;;;4.25;3.00;;;;;;;;5131197;27;45529;-64
2022/07/01 02:39:09;;;;;;;;;4.50;4.50;;;;;;;;5121699;27;45648;-64
2022/07/01 02:42:22;;;;;;;;;7.50;6.50;;;;;;;;5129416;27;45452;-64
2022/07/01 02:44:20;;;;;;;;;4.25;4.25;;;;;;;;5121075;27;45780;-63
2022/07/01 02:46:45;;;;;;;;;4.50;4.50;;;;;;;;5131007;27;45890;-64
2022/07/01 02:49:10;;;;;;;;;5.25;5.25;;;;;;;;5131155;27;45799;-64
2022/07/01 02:51:35;;;;;;;;;5.00;5.00;;;;;;;;5120348;27;45602;-64
2022/07/01 02:54:01;;;;;;;;;5.00;5.00;;;;;;;;5131000;27;45924;-64
2022/07/01 02:56:26;;;;;;;;;5.00;5.00;;;;;;;;5120108;27;45787;-64
2022/07/01 02:58:51;;;;;;;;;5.00;5.00;;;;;;;;5130691;27;46047;-64
2022/07/01 03:01:17;;;;;;;;;5.25;5.25;;;;;;;;5129873;27;45389;-64
2022/07/01 03:03:42;;;;;;;;;5.50;4.00;;;;;;;;5120752;27;46081;-65
2022/07/01 03:06:07;;;;;;;;;4.50;4.50;;;;;;;;5129259;27;45513;-64
2022/07/01 03:08:32;;;;;;;;;3.75;3.75;;;;;;;;5119861;27;45456;-65
2022/07/01 03:10:57;;;;;;;;;5.25;5.25;;;;;;;;5130335;27;45530;-64
2022/07/01 03:13:23;;;;;;;;;4.75;3.75;;;;;;;;5128339;27;46729;-64
2022/07/01 03:15:48;;;;;;;;;3.00;3.00;;;;;;;;5121340;27;46151;-64
2022/07/01 03:18:13;;;;;;;;;2.00;2.00;;;;;;;;5130744;27;45731;-64
2022/07/01 03:20:38;;;;;;;;;3.00;3.00;;;;;;;;5120213;27;45991;-64
2022/07/01 03:23:03;;;;;;;;;1.75;1.75;;;;;;;;5109400;27;47197;-63
2022/07/01 03:25:29;;;;;;;;;2.25;2.00;;;;;;;;5127347;27;45592;-64
2022/07/01 03:27:54;;;;;;;;;3.00;3.00;;;;;;;;5123750;27;45462;-64
2022/07/01 03:30:19;;;;;;;;;3.00;3.00;;;;;;;;5130115;27;45723;-64
2022/07/01 03:32:44;;;;;;;;;3.00;3.00;;;;;;;;5101272;27;47845;-64
2022/07/01 03:37:54;;;;;;;;;3.25;2.50;;;;;;;;5127623;27;45566;-65
2022/07/01 03:40:19;;;;;;;;;1.75;1.50;;;;;;;;5129329;27;45499;-64
2022/07/01 03:42:44;;;;;;;;;2.00;2.00;;;;;;;;5133553;27;47052;-64
2022/07/01 03:45:10;;;;;;;;;2.00;2.00;;;;;;;;5123755;27;45992;-64
2022/07/01 03:47:35;;;;;;;;;2.00;2.00;;;;;;;;5133846;27;45555;-64
2022/07/01 03:50:00;;;;;;;;;3.00;2.00;;;;;;;;5126387;27;45522;-64
2022/07/01 03:52:25;;;;;;;;;2.00;2.00;;;;;;;;5129821;27;46091;-63
2022/07/01 03:54:50;;;;;;;;;2.50;2.50;;;;;;;;5097638;27;45730;-64
2022/07/01 03:57:16;;;;;;;;;2.00;2.00;;;;;;;;5123162;27;45798;-63
2022/07/01 03:59:41;;;;;;;;;1.75;1.50;;;;;;;;5132276;27;45373;-64
2022/07/01 04:02:07;;;;;;;;;1.00;1.00;;;;;;;;5125191;27;45650;-65
2022/07/01 04:04:33;;;;;;;;;2.00;2.00;;;;;;;;5111953;27;45577;-64
2022/07/01 04:06:59;;;;;;;;;1.00;1.00;;;;;;;;5133354;27;45461;-65
2022/07/01 04:09:24;;;;;;;;;0.25;0.25;;;;;;;;5122712;27;45585;-65
2022/07/01 04:11:50;;;;;;;;;2.00;2.00;;;;;;;;5133607;27;45968;-64
2022/07/01 04:14:16;;;;;;;;;2.25;1.00;;;;;;;;5123757;27;45491;-65
2022/07/01 04:16:41;;;;;;;;;2.00;2.00;;;;;;;;5131942;27;45419;-64
2022/07/01 04:19:09;;;;;;;;;3.25;1.75;;;;;;;;5133377;27;45552;-65
2022/07/01 04:24:18;;;;;;;;;1.50;1.50;;;;;;;;5130438;27;46043;-64
2022/07/01 04:26:43;;;;;;;;;1.75;1.50;;;;;;;;5122810;27;45363;-65
2022/07/01 04:29:09;;;;;;;;;1.75;1.75;;;;;;;;5132662;27;45902;-64
2022/07/01 04:31:35;;;;;;;;;2.75;2.75;;;;;;;;5129252;27;46772;-65
2022/07/01 04:34:00;;;;;;;;;1.00;1.00;;;;;;;;5125566;27;45470;-64
2022/07/01 04:36:26;;;;;;;;;3.00;1.75;;;;;;;;5113708;27;45539;-65
2022/07/01 04:38:51;;;;;;;;;2.00;1.00;;;;;;;;5123146;27;45378;-64
2022/07/01 04:44:00;;;;;;;;;2.00;2.00;;;;;;;;5125050;27;45413;-64
2022/07/01 04:46:25;;;;;;;;;1.00;1.00;;;;;;;;5129262;27;45464;-65
2022/07/01 04:48:51;;;;;;;;;1.25;1.00;;;;;;;;5132688;27;45889;-64
2022/07/01 04:51:16;;;;;;;;;2.00;1.25;;;;;;;;5103437;27;47741;-64
2022/07/01 04:53:41;;;;;;;;;1.00;1.00;;;;;;;;5113960;27;45505;-64
2022/07/01 04:56:06;;;;;;;;;3.50;1.00;;;;;;;;5124673;27;45616;-64
2022/07/01 04:58:31;;;;;;;;;2.00;2.00;;;;;;;;5129893;27;45669;-64
2022/07/01 05:00:57;;;;;;;;;2.00;2.00;;;;;;;;5132425;27;45749;-64
2022/07/01 05:03:22;;;;;;;;;1.25;1.25;;;;;;;;5103215;27;47025;-64
2022/07/01 05:05:47;;;;;;;;;1.00;1.00;;;;;;;;5133065;27;45926;-65
2022/07/01 05:08:12;;;;;;;;;3.00;3.00;;;;;;;;5123871;27;45439;-64
2022/07/01 05:10:37;;;;;;;;;1.75;1.00;;;;;;;;5130531;27;45741;-64
2022/07/01 05:13:03;;;;;;;;;0.00;0.00;;;;;;;;5132444;27;45700;-64
2022/07/01 05:15:28;;;;;;;;;1.00;1.00;;;;;;;;5103440;27;45537;-65
2022/07/01 05:23:21;;;;;;;;;4.50;3.00;;;;;;;;5131931;27;45336;-66
2022/07/01 05:25:47;;;;;;;;;2.25;2.25;;;;;;;;5132597;27;45489;-66
2022/07/01 05:28:12;;;;;;;;;3.25;2.25;;;;;;;;5132452;27;45787;-67
2022/07/01 05:30:37;;;;;;;;;2.00;2.00;;;;;;;;5115791;27;45364;-67
2022/07/01 05:33:03;;;;;;;;;3.00;2.00;;;;;;;;5117104;27;46224;-67
2022/07/01 05:35:28;;;;;;;;;3.00;3.00;;;;;;;;5120632;27;45585;-67
2022/07/01 05:37:53;;;;;;;;;3.25;2.00;;;;;;;;5120662;27;45530;-69
2022/07/01 05:40:18;;;;;;;;;2.50;2.50;;;;;;;;5101553;27;47862;-66
2022/07/01 05:42:43;;;;;;;;;2.00;2.00;;;;;;;;5116518;27;45474;-66
2022/07/01 05:45:09;;;;;;;;;2.00;2.00;;;;;;;;5116102;27;45655;-66
2022/07/01 05:47:34;;;;;;;;;3.25;3.00;;;;;;;;5113270;27;45561;-67
2022/07/01 05:49:59;;;;;;;;;2.00;2.00;;;;;;;;5125173;27;46308;-67
2022/07/01 05:52:24;;;;;;;;;2.25;2.25;;;;;;;;5101416;27;45783;-68
2022/07/01 05:54:50;;;;;;;;;5.00;2.00;;;;;;;;5117183;27;45626;-67
2022/07/01 05:57:15;;;;;;;;;1.75;1.75;;;;;;;;5095752;27;45941;-66
2022/07/01 05:59:40;;;;;;;;;2.25;2.25;;;;;;;;5119375;27;47425;-68
2022/07/01 06:02:06;;;;;;;;;3.25;2.00;;;;;;;;5119819;27;45427;-67
2022/07/01 06:04:31;;;;;;;;;2.00;2.00;;;;;;;;5119720;27;45686;-67
2022/07/01 06:06:56;;;;;;;;;3.25;2.00;;;;;;;;5117684;27;45849;-67
2022/07/01 06:09:21;;;;;;;;;2.75;2.00;;;;;;;;5096155;27;47474;-67
2022/07/01 06:11:47;;;;;;;;;4.00;2.75;;;;;;;;5117887;27;45316;-68
2022/07/01 06:14:12;;;;;;;;;3.25;3.25;;;;;;;;5119749;27;45464;-67
2022/07/01 06:16:37;;;;;;;;;2.00;2.00;;;;;;;;5120010;27;45390;-65
2022/07/01 06:19:04;;;;;;;;;5.00;2.00;;;;;;;;5118219;27;45554;-64
2022/07/01 06:21:29;;;;;;;;;2.00;2.00;;;;;;;;5114942;27;46017;-65
2022/07/01 06:23:54;;;;;;;;;2.00;2.00;;;;;;;;5098935;27;45400;-65
2022/07/01 06:26:19;;;;;;;;;2.25;2.00;;;;;;;;5119488;27;45522;-66
2022/07/01 06:28:44;;;;;;;;;2.00;1.00;;;;;;;;5100505;27;48877;-67
2022/07/01 06:31:10;;;;;;;;;2.00;2.00;;;;;;;;5119070;27;45736;-67
2022/07/01 06:33:35;;;;;;;;;2.00;2.00;;;;;;;;5114578;27;45429;-66
2022/07/01 06:36:00;;;;;;;;;1.25;1.25;;;;;;;;5097930;27;45728;-67
2022/07/01 06:38:25;;;;;;;;;2.00;1.00;;;;;;;;5100669;27;47754;-66
2022/07/01 06:43:35;;;;;;;;;2.00;1.00;;;;;;;;5119477;27;45644;-67
2022/07/01 06:46:01;;;;;;;;;0.50;0.50;;;;;;;;5117634;27;45313;-67
2022/07/01 06:48:26;;;;;;;;;1.25;1.25;;;;;;;;5113552;27;46576;-66
2022/07/01 06:50:51;;;;;;;;;2.00;1.00;;;;;;;;5117195;27;45442;-67
2022/07/01 06:53:16;;;;;;;;;1.25;1.25;;;;;;;;5119258;27;45570;-67
2022/07/01 06:55:42;;;;;;;;;1.00;1.00;;;;;;;;5119115;27;45502;-67
2022/07/01 06:58:07;;;;;;;;;1.75;0.75;;;;;;;;5099348;27;47513;-66
2022/07/01 07:00:33;;;;;;;;;1.00;1.00;;;;;;;;5095233;27;46080;-66
2022/07/01 07:02:58;;;;;;;;;2.00;1.00;;;;;;;;5126883;27;45440;-66
2022/07/01 07:05:23;;;;;;;;;0.00;0.00;;;;;;;;5120846;27;45410;-66
2022/07/01 07:07:48;;;;;;;;;2.50;1.00;;;;;;;;5119948;27;45653;-67
2022/07/01 07:10:13;;;;;;;;;1.00;1.00;;;;;;;;5083471;27;45568;-66
2022/07/01 07:12:39;;;;;;;;;0.00;0.00;;;;;;;;5134755;27;45567;-66
2022/07/01 07:15:04;;;;;;;;;0.75;0.00;;;;;;;;5119433;27;45528;-67
2022/07/01 07:17:29;;;;;;;;;1.00;1.00;;;;;;;;5122638;27;46580;-66
2022/07/01 07:19:55;;;;;;;;;1.50;1.00;;;;;;;;5103489;27;46260;-68
2022/07/01 07:22:20;;;;;;;;;1.00;1.00;;;;;;;;5122598;27;45784;-66
2022/07/01 07:24:45;;;;;;;;;1.00;0.00;;;;;;;;5118860;27;45877;-65
2022/07/01 07:27:10;;;;;;;;;3.50;0.75;;;;;;;;5098973;27;46790;-65
2022/07/01 07:29:36;;;;;;;;;0.25;0.25;;;;;;;;5134065;27;45646;-67
2022/07/01 07:32:01;;;;;;;;;0.25;0.25;;;;;;;;5127507;27;45426;-67
2022/07/01 07:34:26;;;;;;;;;1.00;1.00;;;;;;;;5103613;27;45506;-67
2022/07/01 07:36:51;;;;;;;;;0.50;0.50;;;;;;;;5119360;27;46513;-68
2022/07/01 07:39:17;;;;;;;;;0.50;0.50;;;;;;;;5117681;27;45588;-67
2022/07/01 07:41:42;;;;;;;;;0.75;0.75;;;;;;;;5133830;27;45452;-67
2022/07/01 07:44:07;;;;;;;;;0.00;0.00;;;;;;;;5126319;27;45421;-66
2022/07/01 07:46:32;;;;;;;;;1.00;0.25;;;;;;;;5122068;27;45526;-67
2022/07/01 07:48:57;;;;;;;;;0.00;0.00;;;;;;;;5120126;27;45689;-67
2022/07/01 07:51:24;;;;;;;;;1.00;1.00;;;;;;;;5117562;27;45677;-67
2022/07/01 07:53:49;;;;;;;;;0.00;0.00;;;;;;;;5120499;27;45775;-67
2022/07/01 07:56:14;;;;;;;;;0.00;0.00;;;;;;;;5121659;27;46357;-67
2022/07/01 07:58:41;;;;;;;;;0.00;0.00;;;;;;;;5121930;27;45633;-67
2022/07/01 08:01:07;;;;;;;;;0.00;0.00;;;;;;;;5121303;27;46127;-69
2022/07/01 08:03:34;;;;;;;;;0.00;0.00;;;;;;;;5098658;27;46030;-67
2022/07/01 08:05:59;;;;;;;;;0.00;0.00;;;;;;;;5118890;27;46070;-67
2022/07/01 08:08:24;;;;;;;;;3.00;0.00;;;;;;;;5121701;27;45609;-67
2022/07/01 08:10:49;;;;;;;;;0.00;0.00;;;;;;;;5122073;27;45848;-67
2022/07/01 08:13:15;;;;;;;;;0.00;0.00;;;;;;;;5122019;27;45970;-68
2022/07/01 08:15:41;;;;;;;;;1.25;0.00;;;;;;;;5098382;27;47901;-67
2022/07/01 08:18:07;;;;;;;;;0.25;0.00;;;;;;;;5111334;27;45778;-67
2022/07/01 08:20:32;;;;;;;;;1.00;0.25;;;;;;;;5121365;27;45688;-67
2022/07/01 08:22:58;;;;;;;;;0.00;0.00;;;;;;;;5122103;27;45525;-68
2022/07/01 08:25:23;;;;;;;;;0.00;0.00;;;;;;;;5121663;27;46072;-68
2022/07/01 08:27:48;;;;;;;;;0.25;0.00;;;;;;;;5099071;27;45765;-68
2022/07/01 08:30:13;;;;;;;;;0.00;0.00;;;;;;;;5117036;27;45364;-67
2022/07/01 08:32:38;;;;;;;;;0.00;0.00;;;;;;;;5121296;27;45605;-68
2022/07/01 08:35:04;;;;;;;;;1.25;0.00;;;;;;;;5121073;27;46056;-67
2022/07/01 08:37:29;;;;;;;;;0.50;0.00;;;;;;;;5102899;27;45481;-67
2022/07/01 08:39:54;;;;;;;;;0.50;0.50;;;;;;;;5100031;27;45552;-67
2022/07/01 08:42:20;;;;;;;;;0.00;0.00;;;;;;;;5098342;27;46027;-68
2022/07/01 08:44:45;;;;;;;;;1.75;0.50;;;;;;;;5101638;27;48560;-68
2022/07/01 08:47:11;;;;;;;;;1.00;1.00;;;;;;;;5121457;27;45690;-68
2022/07/01 08:49:36;;;;;;;;;0.00;0.00;;;;;;;;5102583;27;45584;-68
2022/07/01 08:52:01;;;;;;;;;0.25;0.25;;;;;;;;5119656;27;46944;-69
2022/07/01 08:54:26;;;;;;;;;1.00;1.00;;;;;;;;5116053;27;46035;-67
2022/07/01 08:56:52;;;;;;;;;0.25;0.25;;;;;;;;5119607;27;45369;-68
2022/07/01 08:59:25;;;;;;;;;0.75;0.75;;;;;;;;5102000;27;45930;-66
2022/07/01 09:01:58;;;;;;;;;0.00;0.00;;;;;;;;5102298;27;45468;-68
2022/07/01 09:04:24;;;;;;;;;0.00;0.00;;;;;;;;5120741;27;45539;-67
2022/07/01 09:06:49;;;;;;;;;0.50;0.50;;;;;;;;5117310;27;45518;-68
2022/07/01 09:09:20;;;;;;;;;0.00;0.00;;;;;;;;5116303;27;45360;-67
2022/07/01 09:11:46;;;;;;;;;0.00;0.00;;;;;;;;5130781;27;45596;-68
2022/07/01 09:14:13;;;;;;;;;0.75;0.75;;;;;;;;5105219;27;47594;-66
2022/07/01 09:16:42;;;;;;;;;2.00;1.00;;;;;;;;5120696;27;45592;-67
2022/07/01 09:19:08;;;;;;;;;0.00;0.00;;;;;;;;5119842;27;45680;-67
2022/07/01 09:21:33;;;;;;;;;0.75;0.75;;;;;;;;5115839;27;47820;-68
2022/07/01 09:24:01;;;;;;;;;1.00;1.00;;;;;;;;5117880;27;47372;-67
2022/07/01 09:26:27;;;;;;;;;0.00;0.00;;;;;;;;5120319;27;46098;-69
2022/07/01 09:28:56;;;;;;;;;1.25;0.00;;;;;;;;5120414;27;45988;-68
2022/07/01 09:31:22;;;;;;;;;0.00;0.00;;;;;;;;5120661;27;45414;-69
2022/07/01 09:34:02;;;;;;;;;0.00;0.00;;;;;;;;5116440;27;45682;-68
2022/07/01 09:36:27;;;;;;;;;0.00;0.00;;;;;;;;5115262;27;45943;-68
2022/07/01 09:38:52;;;;;;;;;1.00;0.00;;;;;;;;5099780;27;45366;-69
2022/07/01 09:41:17;;;;;;;;;0.00;0.00;;;;;;;;5120862;27;45713;-68
2022/07/01 09:43:43;;;;;;;;;0.00;0.00;;;;;;;;5120321;27;45592;-68
2022/07/01 09:46:09;;;;;;;;;0.50;0.00;;;;;;;;5101130;27;46095;-67
2022/07/01 09:48:35;;;;;;;;;0.00;0.00;;;;;;;;5115583;27;45412;-68
2022/07/01 09:51:01;;;;;;;;;0.00;0.00;;;;;;;;5117499;27;45682;-69
2022/07/01 09:53:26;;;;;;;;;0.00;0.00;;;;;;;;5120258;27;46087;-67
2022/07/01 09:55:52;;;;;;;;;0.00;0.00;;;;;;;;5120134;27;45805;-68
2022/07/01 09:58:17;;;;;;;;;0.00;0.00;;;;;;;;5120394;27;45494;-68
2022/07/01 10:00:43;;;;;;;;;0.00;0.00;;;;;;;;5115976;27;45445;-68
2022/07/01 10:03:08;;;;;;;;;0.00;0.00;;;;;;;;5115921;27;46068;-68
2022/07/01 10:05:39;;;;;;;;;0.50;0.25;;;;;;;;5100884;27;45840;-68
2022/07/01 10:08:11;;;;;;;;;0.00;0.00;;;;;;;;5119869;27;45723;-68
2022/07/01 10:10:39;;;;;;;;;0.00;0.00;;;;;;;;5119881;27;45528;-69
2022/07/01 10:13:06;;;;;;;;;0.00;0.00;;;;;;;;5118138;27;46467;-68
2022/07/01 10:15:31;;;;;;;;;0.00;0.00;;;;;;;;5114686;27;45441;-68
2022/07/01 10:17:56;;;;;;;;;0.00;0.00;;;;;;;;5117159;27;45536;-68
2022/07/01 10:20:26;;;;;;;;;0.50;0.50;;;;;;;;5119558;27;46458;-67
2022/07/01 10:22:59;;;;;;;;;0.00;0.00;;;;;;;;5101068;27;47647;-67
2022/07/01 10:25:30;;;;;;;;;0.00;0.00;;;;;;;;5119609;27;45614;-67
2022/07/01 10:28:14;;;;;;;;;1.25;0.25;;;;;;;;5116851;27;45468;-68
2022/07/01 10:30:48;;;;;;;;;0.00;0.00;;;;;;;;5114284;27;45502;-69
2022/07/01 10:33:26;;;;;;;;;0.00;0.00;;;;;;;;5112821;27;46485;-68
2022/07/01 10:35:51;;;;;;;;;1.00;0.00;;;;;;;;5115473;27;46001;-69
2022/07/01 10:38:16;;;;;;;;;0.00;0.00;;;;;;;;5119629;27;45721;-69
2022/07/01 10:40:44;;;;;;;;;0.50;0.50;;;;;;;;5119461;27;45718;-69
2022/07/01 10:43:10;;;;;;;;;0.00;0.00;;;;;;;;5099311;27;48234;-68
2022/07/01 10:45:45;;;;;;;;;0.00;0.00;;;;;;;;5114443;27;45477;-67
2022/07/01 10:48:17;;;;;;;;;0.00;0.00;;;;;;;;5126313;27;45504;-67
2022/07/01 10:50:45;;;;;;;;;0.00;0.00;;;;;;;;5118500;27;45494;-69
2022/07/01 10:53:11;;;;;;;;;0.00;0.00;;;;;;;;5118922;27;46327;-68
2022/07/01 10:55:37;;;;;;;;;0.00;0.00;;;;;;;;5119029;27;45747;-68
2022/07/01 10:58:02;;;;;;;;;0.67;0.00;;;;;;;;5117720;27;45769;-68
2022/07/01 11:00:31;;;;;;;;;0.00;0.00;;;;;;;;5114058;27;45918;-67
2022/07/01 11:03:04;;;;;;;;;0.00;0.00;;;;;;;;5116797;27;46932;-67
2022/07/01 11:05:30;;;;;;;;;1.00;0.00;;;;;;;;5100086;27;45599;-68
2022/07/01 11:07:55;;;;;;;;;0.00;0.00;;;;;;;;5118881;27;45511;-69
2022/07/01 11:10:21;;;;;;;;;0.00;0.00;;;;;;;;5100107;27;45505;-69
2022/07/01 11:12:49;;;;;;;;;0.00;0.00;;;;;;;;5095935;27;48260;-68
2022/07/01 11:15:14;;;;;;;;;0.00;0.00;;;;;;;;5095572;27;46069;-65
2022/07/01 11:17:48;;;;;;;;;0.00;0.00;;;;;;;;5118304;27;45520;-66
2022/07/01 11:20:13;;;;;;;;;0.00;0.00;;;;;;;;5100068;27;45451;-67
2022/07/01 11:22:39;;;;;;;;;0.00;0.00;;;;;;;;5118532;27;45752;-67
2022/07/01 11:25:06;;;;;;;;;0.00;0.00;;;;;;;;5098602;27;45506;-67
2022/07/01 11:27:32;;;;;;;;;0.00;0.00;;;;;;;;5113773;27;45392;-68
2022/07/01 11:29:58;;;;;;;;;0.00;0.00;;;;;;;;5116154;27;45499;-68
2022/07/01 11:32:24;;;;;;;;;0.33;0.00;;;;;;;;5117531;27;45948;-68
2022/07/01 11:34:50;;;;;;;;;0.50;0.00;;;;;;;;5095385;27;46432;-68
2022/07/01 11:40:12;;;;;;;;;0.00;0.00;;;;;;;;5101693;27;45574;-67
2022/07/01 11:42:37;;;;;;;;;0.00;0.00;;;;;;;;5099284;27;45671;-68
2022/07/01 11:45:03;;;;;;;;;0.50;0.00;;;;;;;;5107199;27;45697;-66
2022/07/01 11:47:29;;;;;;;;;0.00;0.00;;;;;;;;5100583;27;45563;-67
2022/07/01 11:49:54;;;;;;;;;0.00;0.00;;;;;;;;5107776;27;45529;-67
2022/07/01 11:52:20;;;;;;;;;0.00;0.00;;;;;;;;5109269;27;45777;-69
2022/07/01 11:54:47;;;;;;;;;0.00;0.00;;;;;;;;5101260;27;45475;-68
2022/07/01 11:57:14;;;;;;;;;0.00;0.00;;;;;;;;5115235;27;45564;-67
2022/07/01 11:59:40;;;;;;;;;0.00;0.00;;;;;;;;5103153;27;45589;-67
2022/07/01 12:02:06;;;;;;;;;0.00;0.00;;;;;;;;5111185;27;47869;-67
2022/07/01 12:04:31;;;;;;;;;0.00;0.00;;;;;;;;5092650;27;45531;-67
2022/07/01 12:06:58;;;;;;;;;0.00;0.00;;;;;;;;5105263;27;45564;-68
2022/07/01 12:09:23;;;;;;;;;0.00;0.00;;;;;;;;5114450;27;45835;-68
2022/07/01 12:11:49;;;;;;;;;0.00;0.00;;;;;;;;5101843;27;45741;-69
2022/07/01 12:14:29;;;;;;;;;0.00;0.00;;;;;;;;5111294;27;45435;-68
2022/07/01 12:16:56;;;;;;;;;0.00;0.00;;;;;;;;5108021;27;45522;-68
2022/07/01 12:19:41;;;;;;;;;0.00;0.00;;;;;;;;5091154;27;45575;-67
2022/07/01 12:22:08;;;;;;;;;0.00;0.00;;;;;;;;5100060;27;45485;-69
2022/07/01 12:24:33;;;;;;;;;0.00;0.00;;;;;;;;5112741;27;45636;-69
2022/07/01 12:26:58;;;;;;;;;0.00;0.00;;;;;;;;5091547;27;45709;-69
2022/07/01 12:29:24;;;;;;;;;0.00;0.00;;;;;;;;5085087;27;45565;-67
2022/07/01 12:31:56;;;;;;;;;0.00;0.00;;;;;;;;5109703;27;45488;-68
2022/07/01 12:34:21;;;;;;;;;0.00;0.00;;;;;;;;5120808;27;46164;-69
2022/07/01 12:36:50;;;;;;;;;0.00;0.00;;;;;;;;5124311;27;45760;-69
2022/07/01 12:39:15;;;;;;;;;0.00;0.00;;;;;;;;5130572;27;45519;-67
2022/07/01 12:41:48;;;;;;;;;1.00;0.00;;;;;;;;5104187;27;47714;-69
2022/07/01 12:44:23;;;;;;;;;0.00;0.00;;;;;;;;5131553;27;45976;-69
2022/07/01 12:46:49;;;;;;;;;0.00;0.00;;;;;;;;5128941;27;45551;-71
2022/07/01 12:49:19;;;;;;;;;0.00;0.00;;;;;;;;5127854;27;45599;-67
2022/07/01 12:51:44;;;;;;;;;0.00;0.00;;;;;;;;5131772;27;45623;-69
2022/07/01 12:54:27;;;;;;;;;0.00;0.00;;;;;;;;5122093;27;46157;-67
2022/07/01 12:56:52;;;;;;;;;0.00;0.00;;;;;;;;5128463;27;45483;-68
2022/07/01 12:59:17;;;;;;;;;0.00;0.00;;;;;;;;5105998;27;45599;-67
2022/07/01 13:01:43;;;;;;;;;0.00;0.00;;;;;;;;5129074;27;46315;-71
2022/07/01 13:04:08;;;;;;;;;0.00;0.00;;;;;;;;5133657;27;45517;-70
2022/07/01 13:06:33;;;;;;;;;0.00;0.00;;;;;;;;5103702;27;45587;-67
2022/07/01 13:08:58;;;;;;;;;2.00;1.00;;;;;;;;5130710;27;45449;-70
2022/07/01 13:11:23;;;;;;;;;0.00;0.00;;;;;;;;5105046;27;47705;-68
2022/07/01 13:13:49;;;;;;;;;1.00;0.00;;;;;;;;5129943;27;45732;-69
2022/07/01 13:16:14;;;;;;;;;0.00;0.00;;;;;;;;5133840;27;45511;-69
2022/07/01 13:18:39;;;;;;;;;0.00;0.00;;;;;;;;5122460;27;45608;-69
2022/07/01 13:21:04;;;;;;;;;0.00;0.00;;;;;;;;5130014;27;45905;-68
2022/07/01 13:23:30;;;;;;;;;0.00;0.00;;;;;;;;5122671;27;45642;-69
2022/07/01 13:25:55;;;;;;;;;0.00;0.00;;;;;;;;5111594;27;45900;-68
2022/07/01 13:28:20;;;;;;;;;0.00;0.00;;;;;;;;5113584;27;45457;-69
2022/07/01 13:30:45;;;;;;;;;0.00;0.00;;;;;;;;5122739;27;45692;-69
2022/07/01 13:33:10;;;;;;;;;0.25;0.00;;;;;;;;5130053;27;45607;-68
2022/07/01 13:35:36;;;;;;;;;0.00;0.00;;;;;;;;5122038;27;45595;-69
2022/07/01 13:38:01;;;;;;;;;1.00;0.00;;;;;;;;5111843;27;45886;-68
2022/07/01 13:40:26;;;;;;;;;0.00;0.00;;;;;;;;5131284;27;46205;-69
2022/07/01 13:42:51;;;;;;;;;0.00;0.00;;;;;;;;5104753;27;45535;-70
2022/07/01 13:45:17;;;;;;;;;0.75;0.25;;;;;;;;5129789;27;45625;-69
2022/07/01 13:47:42;;;;;;;;;0.00;0.00;;;;;;;;5103435;27;45743;-69
2022/07/01 13:50:08;;;;;;;;;0.00;0.00;;;;;;;;5109683;27;47352;-68
2022/07/01 13:52:33;;;;;;;;;0.00;0.00;;;;;;;;5111192;27;45472;-68
2022/07/01 13:54:58;;;;;;;;;0.00;0.00;;;;;;;;5124543;27;45977;-69
2022/07/01 13:57:24;;;;;;;;;0.00;0.00;;;;;;;;5128458;27;45738;-67
2022/07/01 13:59:49;;;;;;;;;0.25;0.00;;;;;;;;5113141;27;48487;-69
2022/07/01 14:02:14;;;;;;;;;0.00;0.00;;;;;;;;5130306;27;45425;-67
2022/07/01 14:04:40;;;;;;;;;0.00;0.00;;;;;;;;5129518;27;45506;-69
2022/07/01 14:07:05;;;;;;;;;0.00;0.00;;;;;;;;5107787;27;45561;-69
2022/07/01 14:09:31;;;;;;;;;0.00;0.00;;;;;;;;5114139;27;48606;-69
2022/07/01 14:11:56;;;;;;;;;0.00;0.00;;;;;;;;5102275;27;45593;-70
2022/07/01 14:14:22;;;;;;;;;0.00;0.00;;;;;;;;5109195;27;45500;-69
2022/07/01 14:16:47;;;;;;;;;0.00;0.00;;;;;;;;5108921;27;45612;-69
2022/07/01 14:19:12;;;;;;;;;0.00;0.00;;;;;;;;5107256;27;48428;-67
2022/07/01 14:21:38;;;;;;;;;0.00;0.00;;;;;;;;5130244;27;45869;-69
2022/07/01 14:24:04;;;;;;;;;0.00;0.00;;;;;;;;5120729;27;45418;-68
2022/07/01 14:26:29;;;;;;;;;0.00;0.00;;;;;;;;5108972;27;45551;-68
2022/07/01 14:28:54;;;;;;;;;0.00;0.00;;;;;;;;5126689;27;46895;-67
2022/07/01 14:31:19;;;;;;;;;0.00;0.00;;;;;;;;5109727;27;45605;-68
2022/07/01 14:33:45;;;;;;;;;0.00;0.00;;;;;;;;5132265;27;45551;-71
2022/07/01 14:36:12;;;;;;;;;0.00;0.00;;;;;;;;5120928;27;45610;-69
2022/07/01 14:38:38;;;;;;;;;0.00;0.00;;;;;;;;5108954;27;49116;-70
2022/07/01 14:41:03;;;;;;;;;0.00;0.00;;;;;;;;5125478;27;45774;-69
2022/07/01 14:43:29;;;;;;;;;0.25;0.00;;;;;;;;5129565;27;45983;-70
2022/07/01 14:45:54;;;;;;;;;0.00;0.00;;;;;;;;5132142;27;45598;-73
2022/07/01 14:48:20;;;;;;;;;0.50;0.00;;;;;;;;5120043;27;46955;-67
2022/07/01 14:50:45;;;;;;;;;1.00;0.00;;;;;;;;5111225;27;45488;-68
2022/07/01 14:53:10;;;;;;;;;0.00;0.00;;;;;;;;5124460;27;45724;-68
2022/07/01 14:55:36;;;;;;;;;0.00;0.00;;;;;;;;5126423;27;45658;-67